Time;durP1;ratioP1;P1;durP2;ratioP2;P2;SDS_P1;SDS_P2;PMS_P1;PMS_P2;Temp;Humidity;BMP_temperature;BMP_pressure;BME280_temperature;BME280_humidity;BME280_pressure;Samples;Min_cycle;Max_cycle;Signal;HPM_P1;HPM_P2
2023/09/17 00:05:20;;;;;;;3.72;1.67;;;;;;;15.83;100.00;98310.50;15263082;19;20027;-49
2023/09/17 00:10:45;;;;;;;1.60;1.48;;;;;;;15.79;100.00;98312.78;15264473;19;20010;-50
2023/09/17 00:16:11;;;;;;;1.60;1.50;;;;;;;15.70;100.00;98303.09;15261371;19;20471;-46
2023/09/17 00:21:39;;;;;;;1.55;1.45;;;;;;;15.66;100.00;98313.53;15267383;19;20077;-46
2023/09/17 00:27:04;;;;;;;1.67;1.42;;;;;;;15.60;100.00;98308.84;15270356;19;20019;-48
2023/09/17 00:32:30;;;;;;;2.03;1.65;;;;;;;15.56;100.00;98296.72;15279015;19;20018;-49
2023/09/17 00:37:58;;;;;;;2.00;1.60;;;;;;;15.54;100.00;98306.94;15273222;19;20024;-50
2023/09/17 00:43:24;;;;;;;3.38;1.67;;;;;;;15.50;100.00;98317.38;15273327;19;20015;-49
2023/09/17 00:48:49;;;;;;;1.65;1.45;;;;;;;15.43;100.00;98305.59;15273706;19;20078;-50
2023/09/17 00:54:18;;;;;;;3.78;1.67;;;;;;;15.43;100.00;98302.88;15272767;19;20021;-48
2023/09/17 00:59:44;;;;;;;1.95;1.58;;;;;;;15.38;100.00;98306.19;15266763;19;20019;-50
2023/09/17 01:05:10;;;;;;;1.58;1.48;;;;;;;15.39;100.00;98302.44;15274845;19;20347;-50
2023/09/17 01:10:39;;;;;;;2.83;1.70;;;;;;;15.35;100.00;98303.84;15277261;19;20015;-48
2023/09/17 01:16:05;;;;;;;1.75;1.40;;;;;;;15.34;100.00;98310.34;15274151;19;20043;-48
2023/09/17 01:21:36;;;;;;;2.10;1.65;;;;;;;15.31;100.00;98302.56;15274232;19;20014;-48
2023/09/17 01:27:05;;;;;;;1.80;1.70;;;;;;;15.28;100.00;98308.38;15266909;19;20018;-48
2023/09/17 01:32:30;;;;;;;2.33;1.50;;;;;;;15.23;100.00;98316.25;15265941;19;20019;-45
2023/09/17 01:37:57;;;;;;;2.85;1.60;;;;;;;15.16;100.00;98320.78;15270558;19;20022;-46
2023/09/17 01:43:26;;;;;;;2.25;1.50;;;;;;;15.09;100.00;98318.88;15272309;19;20078;-46
2023/09/17 01:48:52;;;;;;;2.25;1.50;;;;;;;15.06;100.00;98329.25;15271754;19;20022;-46
2023/09/17 01:54:18;;;;;;;2.40;1.42;;;;;;;15.02;100.00;98331.50;15270649;19;20025;-49
2023/09/17 01:59:46;;;;;;;1.70;1.60;;;;;;;15.00;100.00;98325.41;15263975;19;20431;-48
2023/09/17 02:05:11;;;;;;;1.60;1.50;;;;;;;14.98;100.00;98334.78;15261640;19;20793;-48
2023/09/17 02:10:36;;;;;;;1.60;1.50;;;;;;;14.95;100.00;98323.28;15270070;19;20349;-47
2023/09/17 02:16:03;;;;;;;1.50;1.40;;;;;;;14.93;100.00;98319.09;15269222;19;20019;-46
2023/09/17 02:21:28;;;;;;;2.10;1.55;;;;;;;14.86;100.00;98327.16;15269806;19;20434;-48
2023/09/17 02:26:52;;;;;;;2.03;1.58;;;;;;;14.83;100.00;98335.66;15266277;19;20034;-46
2023/09/17 02:32:20;;;;;;;2.30;1.60;;;;;;;14.83;100.00;98332.13;15271777;19;20022;-46
2023/09/17 02:37:44;;;;;;;1.77;1.60;;;;;;;14.82;100.00;98336.69;15253980;19;20421;-47
2023/09/17 02:43:09;;;;;;;2.08;1.60;;;;;;;14.83;100.00;98340.25;15254138;19;20049;-48
2023/09/17 02:48:37;;;;;;;2.03;1.50;;;;;;;14.83;100.00;98332.13;15267561;19;20089;-48
2023/09/17 02:54:03;;;;;;;1.60;1.50;;;;;;;14.86;100.00;98320.91;15268141;19;20037;-47
2023/09/17 02:59:27;;;;;;;3.85;1.50;;;;;;;14.85;100.00;98330.91;15263158;19;20018;-46
2023/09/17 03:04:56;;;;;;;2.00;1.58;;;;;;;14.90;100.00;98322.19;15263375;19;20038;-46
2023/09/17 03:10:22;;;;;;;1.88;1.60;;;;;;;14.91;100.00;98330.16;15261151;19;20381;-49
2023/09/17 03:15:47;;;;;;;1.70;1.60;;;;;;;14.97;100.00;98339.41;15264299;19;20025;-48
2023/09/17 03:21:16;;;;;;;2.35;1.58;;;;;;;14.99;100.00;98331.91;15267951;19;20022;-46
2023/09/17 03:26:41;;;;;;;1.65;1.50;;;;;;;15.00;100.00;98333.56;15265288;19;20372;-49
2023/09/17 03:32:06;;;;;;;1.73;1.40;;;;;;;14.99;100.00;98329.19;15262034;19;20751;-47
2023/09/17 03:37:34;;;;;;;1.73;1.50;;;;;;;15.02;100.00;98334.22;15262968;19;20022;-50
2023/09/17 03:42:59;;;;;;;1.52;1.40;;;;;;;15.01;100.00;98329.00;15259698;19;20085;-47
2023/09/17 03:48:25;;;;;;;1.88;1.60;;;;;;;15.03;100.00;98333.19;15263233;19;20030;-47
2023/09/17 03:53:53;;;;;;;1.73;1.50;;;;;;;15.04;100.00;98334.88;15266499;19;20014;-48
2023/09/17 03:59:18;;;;;;;2.20;1.70;;;;;;;15.07;100.00;98337.19;15277769;19;20015;-48
2023/09/17 04:04:42;;;;;;;1.75;1.60;;;;;;;15.08;100.00;98332.59;15268179;19;20018;-47
2023/09/17 04:10:11;;;;;;;1.85;1.42;;;;;;;15.10;100.00;98323.25;15281729;19;20045;-47
2023/09/17 04:15:36;;;;;;;1.20;1.10;;;;;;;15.12;100.00;98324.91;15274233;19;20018;-46
2023/09/17 04:21:01;;;;;;;1.50;1.40;;;;;;;15.17;100.00;98333.31;15279032;19;20089;-49
2023/09/17 04:26:28;;;;;;;1.50;1.40;;;;;;;15.19;100.00;98348.38;15276467;19;20573;-47
2023/09/17 04:31:54;;;;;;;2.00;1.55;;;;;;;15.21;100.00;98342.78;15278695;19;20018;-47
2023/09/17 04:37:19;;;;;;;1.90;1.50;;;;;;;15.22;100.00;98347.16;15271310;19;20015;-47
2023/09/17 04:42:48;;;;;;;1.40;1.25;;;;;;;15.23;100.00;98340.69;15276025;19;20014;-47
2023/09/17 04:48:16;;;;;;;3.00;1.40;;;;;;;15.23;100.00;98354.25;15273677;19;20267;-50
2023/09/17 04:53:41;;;;;;;1.73;1.60;;;;;;;15.27;100.00;98366.41;15276547;19;20007;-47
2023/09/17 04:59:10;;;;;;;1.80;1.40;;;;;;;15.30;100.00;98367.88;15271520;19;20452;-49
2023/09/17 05:04:34;;;;;;;1.58;1.40;;;;;;;15.33;100.00;98370.22;15272160;19;20010;-50
2023/09/17 05:09:59;;;;;;;1.30;1.20;;;;;;;15.38;100.00;98373.22;15265195;19;20024;-47
2023/09/17 05:15:27;;;;;;;1.88;1.40;;;;;;;15.43;100.00;98386.19;15272237;19;20032;-48
2023/09/17 05:20:53;;;;;;;2.80;1.40;;;;;;;15.49;100.00;98385.41;15278151;19;20006;-47
2023/09/17 05:26:18;;;;;;;1.60;1.50;;;;;;;15.55;100.00;98379.22;15271658;19;20015;-47
2023/09/17 05:31:45;;;;;;;3.30;1.40;;;;;;;15.61;100.00;98386.56;15274564;19;20034;-48
2023/09/17 05:37:10;;;;;;;3.75;1.40;;;;;;;15.68;100.00;98395.66;15272780;19;20018;-47
2023/09/17 05:42:43;;;;;;;1.38;1.20;;;;;;;15.74;100.00;98394.03;15267813;19;20018;-47
2023/09/17 05:48:11;;;;;;;1.98;1.38;;;;;;;15.83;100.00;98391.97;15264331;19;20018;-47
2023/09/17 05:53:37;;;;;;;2.58;1.50;;;;;;;15.89;100.00;98385.81;15271913;19;20026;-50
2023/09/17 05:59:01;;;;;;;2.05;1.30;;;;;;;15.99;100.00;98391.75;15269502;19;20017;-48
2023/09/17 06:04:30;;;;;;;2.03;1.23;;;;;;;16.09;100.00;98379.69;15268210;19;20118;-51
2023/09/17 06:09:55;;;;;;;1.98;1.25;;;;;;;16.21;100.00;98377.28;15267498;19;20029;-47
2023/09/17 06:15:20;;;;;;;2.08;1.20;;;;;;;16.29;100.00;98372.50;15264906;19;20644;-48
2023/09/17 06:20:48;;;;;;;1.48;1.27;;;;;;;16.43;100.00;98381.59;15262474;19;20034;-50
2023/09/17 06:26:21;;;;;;;1.90;1.40;;;;;;;16.55;100.00;98384.56;15264139;19;20014;-49
2023/09/17 06:31:46;;;;;;;3.75;1.30;;;;;;;16.67;100.00;98381.28;15268277;19;20025;-49
2023/09/17 06:37:16;;;;;;;1.67;1.20;;;;;;;16.79;100.00;98383.25;15237509;19;20010;-53
2023/09/17 06:42:49;;;;;;;1.50;1.30;;;;;;;16.94;100.00;98382.25;15258251;19;20043;-50
2023/09/17 06:48:16;;;;;;;1.48;1.33;;;;;;;17.07;100.00;98381.50;15255114;19;21045;-50
2023/09/17 06:53:43;;;;;;;1.30;1.20;;;;;;;17.17;100.00;98371.03;15259076;19;21371;-52
2023/09/17 06:59:08;;;;;;;1.27;1.17;;;;;;;17.29;100.00;98373.16;15262709;19;20018;-53
2023/09/17 07:04:33;;;;;;;1.20;1.10;;;;;;;17.37;100.00;98367.50;15264126;19;20018;-51
2023/09/17 07:10:00;;;;;;;1.30;1.10;;;;;;;17.46;100.00;98366.31;15264501;19;20021;-52
2023/09/17 07:15:26;;;;;;;1.45;1.17;;;;;;;17.57;100.00;98364.81;15266099;19;20014;-49
2023/09/17 07:20:52;;;;;;;1.45;1.20;;;;;;;17.66;100.00;98366.28;15262583;19;20014;-50
2023/09/17 07:26:20;;;;;;;3.15;1.15;;;;;;;17.73;100.00;98385.38;15255741;19;20022;-54
2023/09/17 07:31:47;;;;;;;1.33;1.17;;;;;;;17.79;100.00;98386.44;15265483;19;20014;-53
2023/09/17 07:37:12;;;;;;;2.67;1.10;;;;;;;17.84;100.00;98386.66;15261299;19;20030;-51
2023/09/17 07:42:47;;;;;;;1.40;1.30;;;;;;;17.90;100.00;98374.06;15262527;19;20025;-49
2023/09/17 07:48:12;;;;;;;2.63;1.20;;;;;;;17.98;100.00;98377.47;15262833;19;20054;-51
2023/09/17 07:53:38;;;;;;;2.60;1.30;;;;;;;18.09;100.00;98384.16;15258519;19;20022;-52
2023/09/17 07:59:05;;;;;;;2.75;1.13;;;;;;;18.26;100.00;98381.81;15255240;19;20478;-54
2023/09/17 08:04:31;;;;;;;2.72;1.23;;;;;;;18.41;100.00;98376.13;15262604;19;20035;-52
2023/09/17 08:09:55;;;;;;;1.38;1.20;;;;;;;18.66;100.00;98378.16;15261642;19;20015;-53
2023/09/17 08:15:24;;;;;;;1.27;1.17;;;;;;;18.85;100.00;98370.13;15264139;19;20014;-52
2023/09/17 08:20:49;;;;;;;2.15;1.10;;;;;;;19.14;100.00;98378.81;15261081;19;20014;-53
2023/09/17 08:26:14;;;;;;;1.10;1.00;;;;;;;19.49;100.00;98372.94;15253015;19;20082;-52
2023/09/17 08:31:43;;;;;;;1.00;0.93;;;;;;;19.75;100.00;98377.41;15257416;19;20042;-52
2023/09/17 08:37:08;;;;;;;1.60;1.10;;;;;;;19.99;100.00;98364.81;15258970;19;20023;-50
2023/09/17 08:42:41;;;;;;;1.92;0.98;;;;;;;20.31;100.00;98361.16;15267047;19;20021;-57
2023/09/17 08:48:09;;;;;;;2.45;0.90;;;;;;;20.67;100.00;98353.16;15271597;19;20070;-48
2023/09/17 08:53:38;;;;;;;1.10;1.00;;;;;;;20.97;100.00;98357.91;15277158;19;20097;-47
2023/09/17 08:59:08;;;;;;;3.45;1.00;;;;;;;21.16;100.00;98367.75;15267675;19;20011;-51
2023/09/17 09:04:37;;;;;;;1.70;1.00;;;;;;;21.33;100.00;98350.66;15266947;19;20007;-49
2023/09/17 09:10:03;;;;;;;1.45;0.90;;;;;;;21.47;100.00;98356.78;15271323;19;20345;-49
2023/09/17 09:15:29;;;;;;;2.78;1.10;;;;;;;21.59;100.00;98360.44;15273564;19;20024;-47
2023/09/17 09:20:56;;;;;;;1.48;1.00;;;;;;;21.77;100.00;98361.41;15275168;19;20006;-47
2023/09/17 09:26:22;;;;;;;4.10;0.90;;;;;;;21.93;100.00;98359.91;15272967;19;20002;-46
2023/09/17 09:31:47;;;;;;;2.92;0.90;;;;;;;22.15;100.00;98349.16;15275443;19;20082;-48
2023/09/17 09:37:16;;;;;;;2.35;0.82;;;;;;;22.43;100.00;98351.19;15266492;19;20678;-49
2023/09/17 09:42:49;;;;;;;1.33;0.68;;;;;;;22.61;100.00;98350.22;15270549;19;20090;-50
2023/09/17 09:48:16;;;;;;;2.08;0.70;;;;;;;22.85;100.00;98332.84;15270644;19;20038;-52
2023/09/17 09:53:44;;;;;;;1.25;0.60;;;;;;;23.04;100.00;98337.06;15272814;19;20042;-48
2023/09/17 09:59:08;;;;;;;1.13;0.80;;;;;;;23.16;100.00;98333.44;15264727;19;20007;-49
2023/09/17 10:04:34;;;;;;;0.77;0.57;;;;;;;23.30;100.00;98339.50;15269477;19;20022;-50
2023/09/17 10:10:05;;;;;;;4.43;0.90;;;;;;;23.49;100.00;98329.13;15265113;19;20017;-48
2023/09/17 10:15:30;;;;;;;0.88;0.70;;;;;;;23.79;100.00;98323.31;15270241;19;20093;-51
2023/09/17 10:20:57;;;;;;;2.03;0.70;;;;;;;24.00;100.00;98324.50;15271379;19;20090;-52
2023/09/17 10:26:32;;;;;;;1.15;0.80;;;;;;;24.26;100.00;98318.53;15266870;19;20385;-52
2023/09/17 10:32:01;;;;;;;1.70;0.70;;;;;;;24.47;100.00;98317.72;15268321;19;20077;-50
2023/09/17 10:37:29;;;;;;;0.60;0.60;;;;;;;24.69;100.00;98305.09;15268850;19;20010;-49
2023/09/17 10:43:06;;;;;;;0.57;0.57;;;;;;;24.97;100.00;98308.72;15265747;19;20029;-49
2023/09/17 10:48:33;;;;;;;0.73;0.60;;;;;;;25.20;100.00;98304.81;15266465;19;20029;-48
2023/09/17 10:53:58;;;;;;;1.33;0.70;;;;;;;25.35;100.00;98313.25;15270176;19;20094;-48
2023/09/17 10:59:29;;;;;;;2.13;0.70;;;;;;;25.54;100.00;98315.66;15265236;19;20014;-49
2023/09/17 11:04:55;;;;;;;0.82;0.60;;;;;;;25.67;100.00;98306.13;15260191;19;20028;-51
2023/09/17 11:10:20;;;;;;;0.57;0.50;;;;;;;25.81;100.00;98303.75;15262199;19;21000;-48
2023/09/17 11:15:48;;;;;;;1.80;0.70;;;;;;;25.96;100.00;98311.28;15264829;19;20376;-49
2023/09/17 11:21:16;;;;;;;0.63;0.50;;;;;;;26.00;100.00;98307.75;15268550;19;20011;-48
2023/09/17 11:26:45;;;;;;;0.85;0.68;;;;;;;26.06;100.00;98293.97;15262081;19;20014;-48
2023/09/17 11:32:13;;;;;;;0.88;0.50;;;;;;;26.26;100.00;98304.34;15265579;19;20011;-48
2023/09/17 11:37:39;;;;;;;2.03;0.63;;;;;;;26.41;100.00;98304.44;15259574;19;20410;-48
2023/09/17 11:43:14;;;;;;;0.60;0.60;;;;;;;26.57;100.00;98287.94;15255680;19;20038;-49
2023/09/17 11:48:43;;;;;;;0.68;0.57;;;;;;;26.73;100.00;98277.75;15263057;19;20011;-48
2023/09/17 11:54:15;;;;;;;0.63;0.60;;;;;;;26.88;100.00;98277.00;15266681;19;20011;-50
2023/09/17 11:59:41;;;;;;;0.80;0.43;;;;;;;27.14;84.50;98274.31;15261456;19;20013;-50
2023/09/17 12:05:09;;;;;;;0.68;0.35;;;;;;;27.35;71.75;98253.84;15262579;19;20074;-49
2023/09/17 12:10:37;;;;;;;0.70;0.43;;;;;;;27.57;74.82;98258.34;15258523;19;20014;-49
2023/09/17 12:16:01;;;;;;;0.57;0.35;;;;;;;27.81;68.21;98249.47;15259452;19;20015;-51
2023/09/17 12:21:44;;;;;;;1.65;0.50;;;;;;;27.94;67.08;98248.88;15278779;19;20034;-49
2023/09/17 12:27:29;;;;;;;0.43;0.40;;;;;;;28.14;67.43;98236.13;15271522;19;20035;-49
2023/09/17 12:32:55;;;;;;;1.65;0.50;;;;;;;28.32;66.57;98231.06;15277604;19;20034;-49
2023/09/17 12:38:22;;;;;;;1.35;0.30;;;;;;;28.44;67.58;98223.25;15272096;19;20017;-51
2023/09/17 12:43:47;;;;;;;0.35;0.35;;;;;;;28.65;64.76;98225.94;15275836;19;20018;-50
2023/09/17 12:49:12;;;;;;;0.68;0.35;;;;;;;28.73;65.99;98219.84;15263253;19;20007;-50
2023/09/17 12:54:39;;;;;;;0.40;0.40;;;;;;;28.97;63.63;98211.63;15275300;19;20007;-52
2023/09/17 13:00:06;;;;;;;0.45;0.30;;;;;;;29.15;64.35;98210.13;15270666;19;20017;-53
2023/09/17 13:05:31;;;;;;;0.93;0.40;;;;;;;29.46;62.58;98201.56;15273399;19;20028;-52
2023/09/17 13:10:58;;;;;;;0.20;0.20;;;;;;;29.64;60.58;98197.22;15272601;19;20472;-50
2023/09/17 13:16:23;;;;;;;0.93;0.47;;;;;;;29.84;58.44;98189.84;15267465;19;20014;-51
2023/09/17 13:21:49;;;;;;;0.50;0.30;;;;;;;29.98;58.17;98181.66;15268691;19;20045;-51
2023/09/17 13:27:18;;;;;;;0.20;0.20;;;;;;;30.29;55.90;98181.28;15267220;19;20029;-50
2023/09/17 13:32:43;;;;;;;1.75;0.30;;;;;;;30.39;52.47;98177.53;15274423;19;20014;-54
2023/09/17 13:38:13;;;;;;;1.02;0.30;;;;;;;30.29;48.76;98171.00;15270147;19;20037;-51
2023/09/17 13:43:48;;;;;;;0.38;0.20;;;;;;;30.48;48.16;98172.16;15273145;19;20028;-50
2023/09/17 13:49:13;;;;;;;0.22;0.22;;;;;;;30.84;48.63;98174.44;15263288;19;20371;-54
2023/09/17 13:54:38;;;;;;;0.20;0.20;;;;;;;31.12;48.13;98169.00;15266466;19;20039;-53
2023/09/17 14:00:09;;;;;;;0.20;0.20;;;;;;;31.26;47.17;98160.75;15266950;19;20118;-53
2023/09/17 14:05:34;;;;;;;0.70;0.30;;;;;;;31.69;48.57;98160.53;15269381;19;20364;-53
2023/09/17 14:10:59;;;;;;;0.38;0.30;;;;;;;31.83;46.95;98154.97;15271203;19;20477;-52
2023/09/17 14:16:26;;;;;;;0.32;0.28;;;;;;;31.99;45.65;98146.31;15268719;19;20021;-49
2023/09/17 14:21:51;;;;;;;0.30;0.20;;;;;;;32.09;46.37;98141.38;15265014;19;20019;-53
2023/09/17 14:27:15;;;;;;;0.30;0.20;;;;;;;32.24;46.79;98158.88;15256018;19;20549;-51
2023/09/17 14:32:43;;;;;;;0.40;0.30;;;;;;;31.91;43.30;98148.72;15269324;19;20010;-51
2023/09/17 14:38:09;;;;;;;0.40;0.20;;;;;;;31.98;44.55;98142.72;15262296;19;20026;-49
2023/09/17 14:43:40;;;;;;;0.20;0.20;;;;;;;31.94;44.26;98144.47;15268444;19;20027;-53
2023/09/17 14:49:07;;;;;;;0.52;0.20;;;;;;;32.11;42.78;98138.28;15267056;19;20025;-53
2023/09/17 14:54:33;;;;;;;0.65;0.20;;;;;;;32.17;43.49;98137.00;15266654;19;20374;-55
2023/09/17 14:59:58;;;;;;;0.10;0.10;;;;;;;32.46;42.00;98141.44;15258051;19;20010;-50
2023/09/17 15:05:26;;;;;;;1.30;0.25;;;;;;;32.67;42.40;98136.25;15265290;19;20018;-55
2023/09/17 15:10:53;;;;;;;0.10;0.10;;;;;;;32.66;40.97;98148.53;15267230;19;20014;-52
2023/09/17 15:16:17;;;;;;;0.22;0.10;;;;;;;32.57;42.77;98151.22;15261708;19;20023;-50
2023/09/17 15:21:44;;;;;;;0.30;0.30;;;;;;;32.63;41.19;98151.13;15265629;19;20467;-52
2023/09/17 15:27:09;;;;;;;1.45;0.20;;;;;;;32.61;42.44;98151.41;15265114;19;20272;-52
2023/09/17 15:32:34;;;;;;;0.20;0.20;;;;;;;32.54;40.85;98151.84;15260904;19;20353;-53
2023/09/17 15:38:03;;;;;;;0.68;0.20;;;;;;;32.58;42.35;98146.47;15261349;19;20355;-50
2023/09/17 15:43:34;;;;;;;0.10;0.10;;;;;;;32.68;41.77;98145.41;15264415;19;20367;-52
2023/09/17 15:49:00;;;;;;;0.20;0.20;;;;;;;32.36;41.83;98150.84;15262843;19;20021;-50
2023/09/17 15:54:28;;;;;;;0.40;0.22;;;;;;;32.40;43.47;98151.88;15258790;19;20468;-55
2023/09/17 15:59:53;;;;;;;0.43;0.30;;;;;;;32.16;43.94;98154.06;15262810;19;20062;-54
2023/09/17 16:05:23;;;;;;;0.60;0.32;;;;;;;31.79;45.04;98149.19;15263481;19;20461;-51
2023/09/17 16:10:51;;;;;;;1.75;0.30;;;;;;;31.44;45.40;98139.53;15266407;19;20021;-52
2023/09/17 16:16:16;;;;;;;1.52;0.52;;;;;;;31.12;47.36;98130.06;15260884;19;20110;-49
2023/09/17 16:21:41;;;;;;;1.05;0.50;;;;;;;30.87;47.52;98132.13;15263614;19;20805;-52
2023/09/17 16:27:10;;;;;;;2.95;0.52;;;;;;;30.66;48.96;98124.09;15257560;19;20018;-52
2023/09/17 16:32:35;;;;;;;0.82;0.32;;;;;;;30.48;50.84;98130.47;15257111;19;20467;-52
2023/09/17 16:37:59;;;;;;;0.40;0.40;;;;;;;30.28;51.83;98124.06;15260280;19;20018;-49
2023/09/17 16:43:33;;;;;;;0.95;0.30;;;;;;;30.04;52.43;98124.94;15259390;19;20028;-50
2023/09/17 16:48:58;;;;;;;1.20;0.40;;;;;;;29.78;52.50;98122.44;15258178;19;20014;-52
2023/09/17 16:54:23;;;;;;;1.17;0.40;;;;;;;29.51;53.27;98125.78;15255149;19;20022;-47
2023/09/17 16:59:51;;;;;;;1.45;0.60;;;;;;;29.24;55.25;98126.28;15249428;19;20042;-48
2023/09/17 17:05:23;;;;;;;0.60;0.60;;;;;;;28.98;55.40;98130.09;15264150;19;20025;-49
2023/09/17 17:10:48;;;;;;;1.25;1.10;;;;;;;28.68;55.64;98137.50;15274262;19;20022;-48
2023/09/17 17:16:15;;;;;;;3.17;0.80;;;;;;;28.44;57.59;98129.06;15272946;19;20085;-48
2023/09/17 17:21:40;;;;;;;0.93;0.80;;;;;;;28.13;nan;98127.28;15274640;19;20014;-48
2023/09/17 17:27:04;;;;;;;1.42;0.90;;;;;;;27.84;58.97;98133.47;15271992;19;20022;-49
2023/09/17 17:32:32;;;;;;;1.90;0.75;;;;;;;27.52;59.63;98118.03;15270823;19;20035;-47
2023/09/17 17:37:56;;;;;;;0.60;0.60;;;;;;;27.25;60.90;98121.09;15266975;19;20011;-49
2023/09/17 17:43:27;;;;;;;0.80;0.60;;;;;;;26.99;62.41;98120.31;15268810;19;20014;-52
2023/09/17 17:48:54;;;;;;;0.75;0.55;;;;;;;26.73;63.87;98125.78;15268692;19;20561;-48
2023/09/17 17:54:19;;;;;;;0.57;0.50;;;;;;;26.51;65.37;98126.03;15274272;19;20013;-49
2023/09/17 17:59:45;;;;;;;1.25;0.55;;;;;;;26.29;67.30;98127.91;15267429;19;20018;-49
2023/09/17 18:05:12;;;;;;;0.98;0.40;;;;;;;26.05;69.66;98126.69;15267261;19;20013;-50
2023/09/17 18:10:37;;;;;;;0.70;0.60;;;;;;;25.83;72.45;98135.97;15261725;19;20365;-50
2023/09/17 18:16:02;;;;;;;1.02;0.55;;;;;;;25.65;73.63;98142.78;15266991;19;20034;-51
2023/09/17 18:21:29;;;;;;;1.30;0.60;;;;;;;25.48;78.95;98146.53;14759168;19;10000965;-50
2023/09/17 18:26:54;;;;;;;0.63;0.50;;;;;;;25.30;80.47;98141.44;15267969;19;20894;-49
2023/09/17 18:32:20;;;;;;;0.82;0.60;;;;;;;25.14;83.76;98129.47;15272700;19;20015;-51
2023/09/17 18:37:49;;;;;;;1.35;0.60;;;;;;;25.01;86.20;98133.47;15264310;19;20428;-50
2023/09/17 18:43:24;;;;;;;0.52;0.52;;;;;;;24.90;89.34;98129.81;15258611;19;20028;-48
2023/09/17 18:48:49;;;;;;;0.95;0.60;;;;;;;24.78;91.91;98124.47;15263327;19;20022;-52
2023/09/17 18:54:18;;;;;;;2.55;0.60;;;;;;;24.67;93.82;98129.03;15290101;19;20022;-52
2023/09/17 18:59:44;;;;;;;0.77;0.70;;;;;;;24.47;98.06;98127.72;15265084;19;20029;-49
2023/09/17 19:05:09;;;;;;;2.17;0.50;;;;;;;24.25;99.88;98130.53;15268579;19;20014;-48
2023/09/17 19:10:37;;;;;;;0.50;0.50;;;;;;;24.15;100.00;98125.72;15259972;19;20014;-49
2023/09/17 19:16:01;;;;;;;1.30;0.55;;;;;;;24.08;100.00;98118.75;15260823;19;20018;-48
2023/09/17 19:21:27;;;;;;;0.60;0.60;;;;;;;23.99;100.00;98105.47;15267304;19;20030;-49
2023/09/17 19:26:54;;;;;;;2.58;0.70;;;;;;;23.93;100.00;98100.13;15262462;19;20038;-50
2023/09/17 19:32:19;;;;;;;3.17;0.65;;;;;;;23.88;100.00;98100.03;15273825;19;20078;-49
2023/09/17 19:37:44;;;;;;;0.73;0.50;;;;;;;23.80;100.00;98098.59;15270164;19;20020;-49
2023/09/17 19:43:20;;;;;;;1.58;0.60;;;;;;;23.67;100.00;98092.38;15263024;19;20024;-49
2023/09/17 19:48:48;;;;;;;0.65;0.60;;;;;;;23.51;100.00;98091.34;15259563;19;20009;-49
2023/09/17 19:54:15;;;;;;;0.73;0.55;;;;;;;23.44;100.00;98081.63;15264852;19;20024;-49
2023/09/17 19:59:44;;;;;;;0.93;0.68;;;;;;;23.38;100.00;98080.72;15262378;19;20467;-48
2023/09/17 20:05:10;;;;;;;1.75;0.80;;;;;;;23.31;100.00;98072.66;15264250;19;20006;-49
2023/09/17 20:10:36;;;;;;;1.48;0.70;;;;;;;23.24;100.00;98071.97;15264417;19;20023;-51
2023/09/17 20:16:03;;;;;;;0.93;0.60;;;;;;;23.18;100.00;98072.97;15259960;19;20015;-49
2023/09/17 20:21:29;;;;;;;1.50;0.70;;;;;;;23.05;100.00;98080.47;15256953;19;20089;-49
2023/09/17 20:26:47;;;;;;;1.30;0.65;;;;;;;22.95;100.00;98091.31;15262198;19;20018;-50
2023/09/17 20:32:15;;;;;;;2.15;0.77;;;;;;;22.86;100.00;98087.31;15264449;19;20471;-49
2023/09/17 20:37:41;;;;;;;0.82;0.70;;;;;;;22.78;100.00;98083.91;15268687;19;20105;-47
2023/09/17 20:43:13;;;;;;;1.55;0.68;;;;;;;22.69;100.00;98084.56;15271663;19;20018;-50
2023/09/17 20:48:41;;;;;;;1.60;0.60;;;;;;;22.61;100.00;98074.84;15269738;19;20049;-49
2023/09/17 20:54:06;;;;;;;1.15;0.68;;;;;;;22.52;100.00;98073.59;15270484;19;20028;-47
2023/09/17 20:59:32;;;;;;;1.42;0.75;;;;;;;22.43;100.00;98076.72;15275085;19;20027;-50
2023/09/17 21:05:00;;;;;;;1.08;0.70;;;;;;;22.35;100.00;98068.84;15239223;19;20383;-50
2023/09/17 21:10:18;;;;;;;1.08;0.80;;;;;;;22.29;100.00;98075.31;15274110;19;20479;-51
2023/09/17 21:15:43;;;;;;;1.13;0.60;;;;;;;22.24;100.00;98075.25;15273473;19;20419;-49
2023/09/17 21:21:11;;;;;;;1.58;0.60;;;;;;;22.16;100.00;98073.72;15272340;19;20770;-49
2023/09/17 21:26:36;;;;;;;0.80;0.63;;;;;;;22.06;100.00;98071.59;15267122;19;20351;-47
2023/09/17 21:32:01;;;;;;;1.25;0.80;;;;;;;22.00;100.00;98069.84;15275817;19;20411;-48
2023/09/17 21:37:29;;;;;;;1.50;0.60;;;;;;;21.94;100.00;98076.28;15273888;19;20014;-50
2023/09/17 21:42:53;;;;;;;1.13;0.80;;;;;;;21.88;100.00;98066.31;15268690;19;20014;-48
2023/09/17 21:48:18;;;;;;;1.52;0.82;;;;;;;21.84;100.00;98060.50;15268931;19;20011;-47
2023/09/17 21:53:46;;;;;;;0.93;0.60;;;;;;;21.80;100.00;98054.66;15267229;19;20349;-50
2023/09/17 21:59:11;;;;;;;0.90;0.50;;;;;;;21.77;100.00;98049.66;15260968;19;20479;-47
2023/09/17 22:04:36;;;;;;;0.60;0.60;;;;;;;21.75;100.00;98048.25;15274288;19;20798;-48
2023/09/17 22:10:04;;;;;;;0.52;0.52;;;;;;;21.72;100.00;98044.06;15266487;19;20029;-48
2023/09/17 22:15:29;;;;;;;0.57;0.57;;;;;;;21.69;100.00;98041.84;15274524;19;20014;-50
2023/09/17 22:20:55;;;;;;;1.35;0.73;;;;;;;21.66;100.00;98032.16;15274153;19;20017;-48
2023/09/17 22:26:22;;;;;;;1.50;0.70;;;;;;;21.60;100.00;98030.41;15266966;19;20480;-48
2023/09/17 22:31:47;;;;;;;2.22;0.60;;;;;;;21.55;100.00;98033.84;15268211;19;20010;-49
2023/09/17 22:37:14;;;;;;;2.22;0.70;;;;;;;21.45;100.00;98033.63;15269635;19;20022;-48
2023/09/17 22:42:48;;;;;;;1.15;0.70;;;;;;;21.32;100.00;98026.50;15270423;19;20015;-48
2023/09/17 22:48:13;;;;;;;1.95;0.82;;;;;;;21.28;100.00;98032.69;15268364;19;20024;-47
2023/09/17 22:53:38;;;;;;;0.63;0.63;;;;;;;21.19;100.00;98019.38;15269989;19;20018;-47
2023/09/17 22:59:06;;;;;;;0.63;0.63;;;;;;;21.08;100.00;98006.53;15262594;19;20017;-47
2023/09/17 23:04:32;;;;;;;0.63;0.63;;;;;;;21.01;100.00;98003.06;15270838;19;20014;-49
2023/09/17 23:09:57;;;;;;;0.90;0.77;;;;;;;20.97;100.00;97991.78;15265855;19;20017;-49
2023/09/17 23:15:25;;;;;;;0.70;0.70;;;;;;;20.90;100.00;97985.59;15270652;19;20007;-47
2023/09/17 23:20:50;;;;;;;0.70;0.70;;;;;;;20.77;100.00;97986.66;15269308;19;20090;-48
2023/09/17 23:26:17;;;;;;;1.17;0.70;;;;;;;20.68;100.00;97982.59;15262178;19;20037;-48
2023/09/17 23:31:45;;;;;;;0.70;0.70;;;;;;;20.61;100.00;97983.56;15259077;19;20021;-48
2023/09/17 23:37:11;;;;;;;0.98;0.80;;;;;;;20.55;100.00;97983.66;15262180;19;20010;-50
2023/09/17 23:42:36;;;;;;;0.98;0.70;;;;;;;20.52;100.00;97978.66;15265338;19;20082;-47
2023/09/17 23:48:03;;;;;;;1.30;0.80;;;;;;;20.46;100.00;97981.25;15266075;19;20025;-48
2023/09/17 23:53:28;;;;;;;1.15;0.80;;;;;;;20.44;100.00;97977.09;15270258;19;20030;-48
2023/09/17 23:58:52;;;;;;;1.13;0.80;;;;;;;20.26;100.00;97987.09;15261494;19;20014;-48
